MMTJ/TIJ METAR and TAF weather

Enter ICAO airport designator
Station Type Date Time Source
MMTJ METAR 2024/05/28 22:40 UTC NOAA

MMTJ 282240Z 25011KT 10SM SKC 19/13 A3006 RMK SC W ISOL CI


Station Type Date Time Source
MMTJ Decoded METAR 2024/05/28 22:40 UTC NOAA

Tijuana International Airport , Mexico (MMTJ) 32-33N 116-58W
May 28, 2024 - 06:40 PM EDT / 2024.05.28 2240 UTC
Wind: from the WSW (250 degrees) at 13 MPH (11 KT):0
Visibility: 10 mile(s):0
Sky conditions: clear
Temperature: 66 F (19 C)
Dew Point: 55 F (13 C)
Relative Humidity: 68%
Pressure (altimeter): 30.06 in. Hg (1017 hPa)
ob: MMTJ 282240Z 25011KT 10SM SKC 19/13 A3006 RMK SC W ISOL CI
cycle: 22

Station Type Date Time Source
MMTJ TAF 2024/05/28 18:05 UTC NOAA